sensor_id;sensor_type;location;lat;lon;timestamp;temperature;humidity
1455;DHT22;721;48.168;12.818;2023-03-20T00:01:46;9.30;36.80
1455;DHT22;721;48.168;12.818;2023-03-20T00:04:15;9.40;37.20
1455;DHT22;721;48.168;12.818;2023-03-20T00:06:41;9.50;36.30
1455;DHT22;721;48.168;12.818;2023-03-20T00:09:08;9.70;35.50
1455;DHT22;721;48.168;12.818;2023-03-20T00:11:42;9.50;36.00
1455;DHT22;721;48.168;12.818;2023-03-20T00:14:12;9.50;34.20
1455;DHT22;721;48.168;12.818;2023-03-20T00:16:42;9.40;37.00
1455;DHT22;721;48.168;12.818;2023-03-20T00:19:15;9.40;38.40
1455;DHT22;721;48.168;12.818;2023-03-20T00:21:43;9.30;40.50
1455;DHT22;721;48.168;12.818;2023-03-20T00:24:10;9.30;40.70
1455;DHT22;721;48.168;12.818;2023-03-20T00:26:37;9.20;41.90
1455;DHT22;721;48.168;12.818;2023-03-20T00:29:05;9.50;43.20
1455;DHT22;721;48.168;12.818;2023-03-20T00:31:35;9.20;42.90
1455;DHT22;721;48.168;12.818;2023-03-20T00:34:04;9.30;43.60
1455;DHT22;721;48.168;12.818;2023-03-20T00:36:33;9.30;43.30
1455;DHT22;721;48.168;12.818;2023-03-20T00:39:00;9.40;43.80
1455;DHT22;721;48.168;12.818;2023-03-20T00:41:30;9.40;42.30
1455;DHT22;721;48.168;12.818;2023-03-20T00:43:59;9.40;42.10
1455;DHT22;721;48.168;12.818;2023-03-20T00:46:28;9.50;42.20
1455;DHT22;721;48.168;12.818;2023-03-20T00:48:57;9.50;41.80
1455;DHT22;721;48.168;12.818;2023-03-20T00:51:24;9.60;41.60
1455;DHT22;721;48.168;12.818;2023-03-20T00:53:52;9.60;41.80
1455;DHT22;721;48.168;12.818;2023-03-20T00:56:30;9.60;43.30
1455;DHT22;721;48.168;12.818;2023-03-20T00:58:58;9.60;44.80
1455;DHT22;721;48.168;12.818;2023-03-20T01:01:25;9.70;44.80
1455;DHT22;721;48.168;12.818;2023-03-20T01:03:52;9.70;44.30
1455;DHT22;721;48.168;12.818;2023-03-20T01:06:19;9.70;44.30
1455;DHT22;721;48.168;12.818;2023-03-20T01:08:46;9.70;43.90
1455;DHT22;721;48.168;12.818;2023-03-20T01:11:15;9.90;42.10
1455;DHT22;721;48.168;12.818;2023-03-20T01:13:44;9.90;39.60
1455;DHT22;721;48.168;12.818;2023-03-20T01:16:19;10.00;36.60
1455;DHT22;721;48.168;12.818;2023-03-20T01:18:47;10.00;37.40
1455;DHT22;721;48.168;12.818;2023-03-20T01:21:14;10.00;37.10
1455;DHT22;721;48.168;12.818;2023-03-20T01:23:41;10.20;37.60
1455;DHT22;721;48.168;12.818;2023-03-20T01:26:21;10.10;36.50
1455;DHT22;721;48.168;12.818;2023-03-20T01:28:48;10.10;36.40
1455;DHT22;721;48.168;12.818;2023-03-20T01:31:16;10.10;36.10
1455;DHT22;721;48.168;12.818;2023-03-20T01:33:43;10.00;37.00
1455;DHT22;721;48.168;12.818;2023-03-20T01:36:12;10.10;37.40
1455;DHT22;721;48.168;12.818;2023-03-20T01:38:39;10.10;36.80
1455;DHT22;721;48.168;12.818;2023-03-20T01:41:08;10.00;38.90
1455;DHT22;721;48.168;12.818;2023-03-20T01:43:39;10.00;40.30
1455;DHT22;721;48.168;12.818;2023-03-20T01:46:15;9.90;44.30
1455;DHT22;721;48.168;12.818;2023-03-20T01:49:08;9.80;47.20
1455;DHT22;721;48.168;12.818;2023-03-20T01:51:55;9.70;49.50
1455;DHT22;721;48.168;12.818;2023-03-20T01:54:24;9.70;51.20
1455;DHT22;721;48.168;12.818;2023-03-20T01:56:55;9.70;53.10
1455;DHT22;721;48.168;12.818;2023-03-20T01:59:26;9.60;55.10
1455;DHT22;721;48.168;12.818;2023-03-20T02:01:55;9.60;60.20
1455;DHT22;721;48.168;12.818;2023-03-20T02:04:25;9.60;62.30
1455;DHT22;721;48.168;12.818;2023-03-20T02:06:53;9.60;64.40
1455;DHT22;721;48.168;12.818;2023-03-20T02:09:19;9.60;63.90
1455;DHT22;721;48.168;12.818;2023-03-20T02:11:46;9.60;64.30
1455;DHT22;721;48.168;12.818;2023-03-20T02:14:14;9.90;65.40
1455;DHT22;721;48.168;12.818;2023-03-20T02:16:43;9.70;64.60
1455;DHT22;721;48.168;12.818;2023-03-20T02:19:16;9.70;64.60
1455;DHT22;721;48.168;12.818;2023-03-20T02:25:27;9.80;64.80
1455;DHT22;721;48.168;12.818;2023-03-20T02:28:14;9.90;64.30
1455;DHT22;721;48.168;12.818;2023-03-20T02:30:59;10.00;61.00
1455;DHT22;721;48.168;12.818;2023-03-20T02:37:21;10.10;57.60
1455;DHT22;721;48.168;12.818;2023-03-20T02:40:01;10.20;57.20
1455;DHT22;721;48.168;12.818;2023-03-20T02:42:38;10.20;58.30
1455;DHT22;721;48.168;12.818;2023-03-20T02:45:15;10.20;57.10
1455;DHT22;721;48.168;12.818;2023-03-20T02:47:49;10.30;58.10
1455;DHT22;721;48.168;12.818;2023-03-20T02:50:21;10.20;55.50
1455;DHT22;721;48.168;12.818;2023-03-20T02:52:57;10.20;54.70
1455;DHT22;721;48.168;12.818;2023-03-20T02:55:30;10.20;56.10
1455;DHT22;721;48.168;12.818;2023-03-20T02:58:02;10.20;55.50
1455;DHT22;721;48.168;12.818;2023-03-20T03:00:33;10.20;54.70
1455;DHT22;721;48.168;12.818;2023-03-20T03:03:05;10.10;55.80
1455;DHT22;721;48.168;12.818;2023-03-20T03:05:37;10.10;56.90
1455;DHT22;721;48.168;12.818;2023-03-20T03:08:08;10.00;56.50
1455;DHT22;721;48.168;12.818;2023-03-20T03:10:40;9.90;58.80
1455;DHT22;721;48.168;12.818;2023-03-20T03:13:13;9.80;59.40
1455;DHT22;721;48.168;12.818;2023-03-20T03:15:44;9.80;59.90
1455;DHT22;721;48.168;12.818;2023-03-20T03:18:16;9.80;60.20
1455;DHT22;721;48.168;12.818;2023-03-20T03:20:46;9.90;62.10
1455;DHT22;721;48.168;12.818;2023-03-20T03:23:19;9.60;62.70
1455;DHT22;721;48.168;12.818;2023-03-20T03:25:49;9.50;63.90
1455;DHT22;721;48.168;12.818;2023-03-20T03:28:24;9.50;64.70
1455;DHT22;721;48.168;12.818;2023-03-20T03:30:52;9.50;64.90
1455;DHT22;721;48.168;12.818;2023-03-20T03:33:22;9.50;64.70
1455;DHT22;721;48.168;12.818;2023-03-20T03:35:50;9.60;64.00
1455;DHT22;721;48.168;12.818;2023-03-20T03:38:30;9.60;62.90
1455;DHT22;721;48.168;12.818;2023-03-20T03:41:09;9.60;63.00
1455;DHT22;721;48.168;12.818;2023-03-20T03:43:44;9.60;62.90
1455;DHT22;721;48.168;12.818;2023-03-20T03:46:17;9.70;63.30
1455;DHT22;721;48.168;12.818;2023-03-20T03:48:50;9.70;62.00
1455;DHT22;721;48.168;12.818;2023-03-20T03:51:22;9.70;61.70
1455;DHT22;721;48.168;12.818;2023-03-20T03:53:54;9.80;61.30
1455;DHT22;721;48.168;12.818;2023-03-20T03:56:25;9.80;60.00
1455;DHT22;721;48.168;12.818;2023-03-20T03:58:55;9.80;59.90
1455;DHT22;721;48.168;12.818;2023-03-20T04:01:25;9.80;59.30
1455;DHT22;721;48.168;12.818;2023-03-20T04:03:54;9.90;60.00
1455;DHT22;721;48.168;12.818;2023-03-20T04:06:22;9.90;59.10
1455;DHT22;721;48.168;12.818;2023-03-20T04:08:52;10.00;56.40
1455;DHT22;721;48.168;12.818;2023-03-20T04:11:21;10.00;54.50
1455;DHT22;721;48.168;12.818;2023-03-20T04:13:50;10.00;55.00
1455;DHT22;721;48.168;12.818;2023-03-20T04:16:20;9.90;57.20
1455;DHT22;721;48.168;12.818;2023-03-20T04:18:47;9.90;57.20
1455;DHT22;721;48.168;12.818;2023-03-20T04:21:14;9.80;59.00
1455;DHT22;721;48.168;12.818;2023-03-20T04:23:42;9.70;59.90
1455;DHT22;721;48.168;12.818;2023-03-20T04:26:10;9.50;61.90
1455;DHT22;721;48.168;12.818;2023-03-20T04:28:37;9.40;63.30
1455;DHT22;721;48.168;12.818;2023-03-20T04:31:04;9.30;66.00
1455;DHT22;721;48.168;12.818;2023-03-20T04:33:31;9.20;68.60
1455;DHT22;721;48.168;12.818;2023-03-20T04:35:58;9.10;69.70
1455;DHT22;721;48.168;12.818;2023-03-20T04:38:25;9.00;70.10
1455;DHT22;721;48.168;12.818;2023-03-20T04:40:52;9.00;70.60
1455;DHT22;721;48.168;12.818;2023-03-20T04:43:20;9.10;70.50
1455;DHT22;721;48.168;12.818;2023-03-20T04:45:47;9.10;69.60
1455;DHT22;721;48.168;12.818;2023-03-20T04:48:14;9.20;69.40
1455;DHT22;721;48.168;12.818;2023-03-20T04:50:41;9.20;67.90
1455;DHT22;721;48.168;12.818;2023-03-20T04:53:11;9.30;66.60
1455;DHT22;721;48.168;12.818;2023-03-20T04:55:37;9.40;65.50
1455;DHT22;721;48.168;12.818;2023-03-20T04:58:04;9.50;63.00
1455;DHT22;721;48.168;12.818;2023-03-20T05:00:32;9.40;62.30
1455;DHT22;721;48.168;12.818;2023-03-20T05:02:59;9.50;62.90
1455;DHT22;721;48.168;12.818;2023-03-20T05:05:26;9.70;60.80
1455;DHT22;721;48.168;12.818;2023-03-20T05:07:54;9.70;59.80
1455;DHT22;721;48.168;12.818;2023-03-20T05:10:21;9.70;58.80
1455;DHT22;721;48.168;12.818;2023-03-20T05:12:47;9.60;59.10
1455;DHT22;721;48.168;12.818;2023-03-20T05:15:15;9.50;59.70
1455;DHT22;721;48.168;12.818;2023-03-20T05:17:43;9.40;60.80
1455;DHT22;721;48.168;12.818;2023-03-20T05:20:10;9.30;62.10
1455;DHT22;721;48.168;12.818;2023-03-20T05:22:37;9.20;62.80
1455;DHT22;721;48.168;12.818;2023-03-20T05:25:04;9.20;63.90
1455;DHT22;721;48.168;12.818;2023-03-20T05:27:31;9.10;63.60
1455;DHT22;721;48.168;12.818;2023-03-20T05:29:58;9.10;64.10
1455;DHT22;721;48.168;12.818;2023-03-20T05:32:25;9.10;64.30
1455;DHT22;721;48.168;12.818;2023-03-20T05:34:53;9.10;64.70
1455;DHT22;721;48.168;12.818;2023-03-20T05:37:20;9.20;63.90
1455;DHT22;721;48.168;12.818;2023-03-20T05:39:47;9.30;63.90
1455;DHT22;721;48.168;12.818;2023-03-20T05:42:14;9.30;62.30
1455;DHT22;721;48.168;12.818;2023-03-20T05:44:40;9.40;61.00
1455;DHT22;721;48.168;12.818;2023-03-20T05:47:07;9.40;60.70
1455;DHT22;721;48.168;12.818;2023-03-20T05:49:34;9.50;61.30
1455;DHT22;721;48.168;12.818;2023-03-20T05:52:02;9.70;60.30
1455;DHT22;721;48.168;12.818;2023-03-20T05:54:29;9.70;57.30
1455;DHT22;721;48.168;12.818;2023-03-20T05:56:56;9.60;57.30
1455;DHT22;721;48.168;12.818;2023-03-20T05:59:23;9.60;57.60
1455;DHT22;721;48.168;12.818;2023-03-20T06:01:50;9.70;58.40
1455;DHT22;721;48.168;12.818;2023-03-20T06:04:17;9.80;58.10
1455;DHT22;721;48.168;12.818;2023-03-20T06:06:44;9.90;56.20
1455;DHT22;721;48.168;12.818;2023-03-20T06:09:12;10.00;54.50
1455;DHT22;721;48.168;12.818;2023-03-20T06:11:39;10.10;54.60
1455;DHT22;721;48.168;12.818;2023-03-20T06:14:06;10.10;52.40
1455;DHT22;721;48.168;12.818;2023-03-20T06:16:32;10.10;51.30
1455;DHT22;721;48.168;12.818;2023-03-20T06:18:59;10.20;52.50
1455;DHT22;721;48.168;12.818;2023-03-20T06:21:26;10.20;52.60
1455;DHT22;721;48.168;12.818;2023-03-20T06:23:53;10.30;51.90
1455;DHT22;721;48.168;12.818;2023-03-20T06:26:21;10.20;50.90
1455;DHT22;721;48.168;12.818;2023-03-20T06:28:48;10.30;50.40
1455;DHT22;721;48.168;12.818;2023-03-20T06:31:14;10.20;51.30
1455;DHT22;721;48.168;12.818;2023-03-20T06:33:41;10.20;52.10
1455;DHT22;721;48.168;12.818;2023-03-20T06:36:10;10.20;53.40
1455;DHT22;721;48.168;12.818;2023-03-20T06:38:37;10.20;52.40
1455;DHT22;721;48.168;12.818;2023-03-20T06:41:04;10.20;53.80
1455;DHT22;721;48.168;12.818;2023-03-20T06:43:32;10.20;53.50
1455;DHT22;721;48.168;12.818;2023-03-20T06:45:59;10.20;51.80
1455;DHT22;721;48.168;12.818;2023-03-20T06:48:26;10.10;51.80
1455;DHT22;721;48.168;12.818;2023-03-20T06:50:53;10.10;53.30
1455;DHT22;721;48.168;12.818;2023-03-20T06:53:21;10.10;53.10
1455;DHT22;721;48.168;12.818;2023-03-20T06:55:48;10.20;53.70
1455;DHT22;721;48.168;12.818;2023-03-20T06:58:16;10.30;53.80
1455;DHT22;721;48.168;12.818;2023-03-20T07:00:44;10.40;53.70
1455;DHT22;721;48.168;12.818;2023-03-20T07:03:11;10.30;51.70
1455;DHT22;721;48.168;12.818;2023-03-20T07:05:39;10.30;50.90
1455;DHT22;721;48.168;12.818;2023-03-20T07:08:06;10.30;51.30
1455;DHT22;721;48.168;12.818;2023-03-20T07:10:33;10.30;52.50
1455;DHT22;721;48.168;12.818;2023-03-20T07:13:00;10.40;51.10
1455;DHT22;721;48.168;12.818;2023-03-20T07:15:27;10.40;50.90
1455;DHT22;721;48.168;12.818;2023-03-20T07:17:56;10.30;50.10
1455;DHT22;721;48.168;12.818;2023-03-20T07:20:23;10.30;50.10
1455;DHT22;721;48.168;12.818;2023-03-20T07:22:50;10.30;49.80
1455;DHT22;721;48.168;12.818;2023-03-20T07:25:17;10.20;50.00
1455;DHT22;721;48.168;12.818;2023-03-20T07:27:44;10.20;50.00
1455;DHT22;721;48.168;12.818;2023-03-20T07:30:15;10.20;49.30
1455;DHT22;721;48.168;12.818;2023-03-20T07:32:43;10.20;50.40
1455;DHT22;721;48.168;12.818;2023-03-20T07:35:11;10.10;49.90
1455;DHT22;721;48.168;12.818;2023-03-20T07:37:38;10.10;53.20
1455;DHT22;721;48.168;12.818;2023-03-20T07:40:06;10.30;46.20
1455;DHT22;721;48.168;12.818;2023-03-20T07:42:33;10.10;48.80
1455;DHT22;721;48.168;12.818;2023-03-20T07:45:00;10.20;50.10
1455;DHT22;721;48.168;12.818;2023-03-20T07:47:27;10.00;52.10
1455;DHT22;721;48.168;12.818;2023-03-20T07:49:54;10.00;51.30
1455;DHT22;721;48.168;12.818;2023-03-20T07:52:22;10.00;53.50
1455;DHT22;721;48.168;12.818;2023-03-20T07:54:48;9.90;54.10
1455;DHT22;721;48.168;12.818;2023-03-20T07:57:15;9.90;56.20
1455;DHT22;721;48.168;12.818;2023-03-20T07:59:42;9.90;56.10
1455;DHT22;721;48.168;12.818;2023-03-20T08:02:13;10.00;56.30
1455;DHT22;721;48.168;12.818;2023-03-20T08:04:40;10.00;56.90
1455;DHT22;721;48.168;12.818;2023-03-20T08:07:07;10.10;55.50
1455;DHT22;721;48.168;12.818;2023-03-20T08:09:35;10.10;54.60
1455;DHT22;721;48.168;12.818;2023-03-20T08:12:02;10.10;57.40
1455;DHT22;721;48.168;12.818;2023-03-20T08:14:29;10.10;54.80
1455;DHT22;721;48.168;12.818;2023-03-20T08:16:56;10.10;55.50
1455;DHT22;721;48.168;12.818;2023-03-20T08:19:23;10.10;55.50
1455;DHT22;721;48.168;12.818;2023-03-20T08:21:50;10.10;55.70
1455;DHT22;721;48.168;12.818;2023-03-20T08:24:18;10.20;55.50
1455;DHT22;721;48.168;12.818;2023-03-20T08:26:46;10.10;52.30
1455;DHT22;721;48.168;12.818;2023-03-20T08:29:13;10.30;53.10
1455;DHT22;721;48.168;12.818;2023-03-20T08:31:41;10.10;53.80
1455;DHT22;721;48.168;12.818;2023-03-20T08:34:08;10.10;53.50
1455;DHT22;721;48.168;12.818;2023-03-20T08:36:35;10.10;53.20
1455;DHT22;721;48.168;12.818;2023-03-20T08:39:04;10.10;51.80
1455;DHT22;721;48.168;12.818;2023-03-20T08:41:31;10.00;51.30
1455;DHT22;721;48.168;12.818;2023-03-20T08:43:59;10.00;53.30
1455;DHT22;721;48.168;12.818;2023-03-20T08:46:27;9.90;52.70
1455;DHT22;721;48.168;12.818;2023-03-20T08:48:54;9.90;54.30
1455;DHT22;721;48.168;12.818;2023-03-20T08:51:21;9.90;53.60
1455;DHT22;721;48.168;12.818;2023-03-20T08:53:48;9.90;53.70
1455;DHT22;721;48.168;12.818;2023-03-20T08:56:14;9.90;54.30
1455;DHT22;721;48.168;12.818;2023-03-20T08:58:41;9.90;55.40
1455;DHT22;721;48.168;12.818;2023-03-20T09:01:09;9.90;55.50
1455;DHT22;721;48.168;12.818;2023-03-20T09:03:36;10.00;53.10
1455;DHT22;721;48.168;12.818;2023-03-20T09:06:05;10.00;52.60
1455;DHT22;721;48.168;12.818;2023-03-20T09:08:32;10.00;52.70
1455;DHT22;721;48.168;12.818;2023-03-20T09:10:59;10.00;53.40
1455;DHT22;721;48.168;12.818;2023-03-20T09:13:26;10.00;54.40
1455;DHT22;721;48.168;12.818;2023-03-20T09:15:53;10.00;52.80
1455;DHT22;721;48.168;12.818;2023-03-20T09:18:22;10.00;53.60
1455;DHT22;721;48.168;12.818;2023-03-20T09:20:50;10.10;55.20
1455;DHT22;721;48.168;12.818;2023-03-20T09:23:17;10.10;53.70
1455;DHT22;721;48.168;12.818;2023-03-20T09:25:43;10.10;53.40
1455;DHT22;721;48.168;12.818;2023-03-20T09:28:10;10.10;53.90
1455;DHT22;721;48.168;12.818;2023-03-20T09:30:37;10.10;54.10
1455;DHT22;721;48.168;12.818;2023-03-20T09:33:05;10.10;54.00
1455;DHT22;721;48.168;12.818;2023-03-20T09:35:33;10.20;53.40
1455;DHT22;721;48.168;12.818;2023-03-20T09:38:00;10.20;53.90
1455;DHT22;721;48.168;12.818;2023-03-20T09:40:29;10.20;54.10
1455;DHT22;721;48.168;12.818;2023-03-20T09:43:01;10.20;53.20
1455;DHT22;721;48.168;12.818;2023-03-20T09:45:44;10.10;53.70
1455;DHT22;721;48.168;12.818;2023-03-20T09:48:20;10.10;55.40
1455;DHT22;721;48.168;12.818;2023-03-20T09:50:58;10.20;54.70
1455;DHT22;721;48.168;12.818;2023-03-20T09:53:30;10.30;51.00
1455;DHT22;721;48.168;12.818;2023-03-20T09:55:59;10.20;50.00
1455;DHT22;721;48.168;12.818;2023-03-20T09:58:29;10.20;52.60
1455;DHT22;721;48.168;12.818;2023-03-20T10:01:00;10.10;51.90
1455;DHT22;721;48.168;12.818;2023-03-20T10:03:31;10.10;51.50
1455;DHT22;721;48.168;12.818;2023-03-20T10:06:04;10.10;51.70
1455;DHT22;721;48.168;12.818;2023-03-20T10:08:34;10.10;52.90
1455;DHT22;721;48.168;12.818;2023-03-20T10:11:09;10.20;52.80
1455;DHT22;721;48.168;12.818;2023-03-20T10:13:50;10.20;51.40
1455;DHT22;721;48.168;12.818;2023-03-20T10:16:29;10.20;53.50
1455;DHT22;721;48.168;12.818;2023-03-20T10:19:03;10.40;53.20
1455;DHT22;721;48.168;12.818;2023-03-20T10:21:38;10.30;50.20
1455;DHT22;721;48.168;12.818;2023-03-20T10:24:13;10.30;48.80
1455;DHT22;721;48.168;12.818;2023-03-20T10:26:45;10.30;49.40
1455;DHT22;721;48.168;12.818;2023-03-20T10:29:21;10.40;50.10
1455;DHT22;721;48.168;12.818;2023-03-20T10:31:56;10.50;49.20
1455;DHT22;721;48.168;12.818;2023-03-20T10:34:35;10.60;45.70
1455;DHT22;721;48.168;12.818;2023-03-20T10:37:16;10.60;46.10
1455;DHT22;721;48.168;12.818;2023-03-20T10:39:52;10.60;45.10
1455;DHT22;721;48.168;12.818;2023-03-20T10:42:24;10.60;45.70
1455;DHT22;721;48.168;12.818;2023-03-20T10:44:56;10.60;45.70
1455;DHT22;721;48.168;12.818;2023-03-20T10:47:27;10.60;45.70
1455;DHT22;721;48.168;12.818;2023-03-20T10:49:58;10.70;44.60
1455;DHT22;721;48.168;12.818;2023-03-20T10:52:32;10.70;44.20
1455;DHT22;721;48.168;12.818;2023-03-20T10:55:02;10.70;45.20
1455;DHT22;721;48.168;12.818;2023-03-20T10:57:32;10.70;44.20
1455;DHT22;721;48.168;12.818;2023-03-20T10:59:59;10.70;44.10
1455;DHT22;721;48.168;12.818;2023-03-20T11:02:28;10.80;43.70
1455;DHT22;721;48.168;12.818;2023-03-20T11:04:56;10.80;43.90
1455;DHT22;721;48.168;12.818;2023-03-20T11:07:27;10.90;44.00
1455;DHT22;721;48.168;12.818;2023-03-20T11:10:08;10.90;43.10
1455;DHT22;721;48.168;12.818;2023-03-20T11:12:37;11.00;41.80
1455;DHT22;721;48.168;12.818;2023-03-20T11:15:18;11.00;42.20
1455;DHT22;721;48.168;12.818;2023-03-20T11:17:51;11.00;42.50
1455;DHT22;721;48.168;12.818;2023-03-20T11:20:18;11.00;39.90
1455;DHT22;721;48.168;12.818;2023-03-20T11:22:48;11.00;38.70
1455;DHT22;721;48.168;12.818;2023-03-20T11:25:24;11.10;41.80
1455;DHT22;721;48.168;12.818;2023-03-20T11:27:54;11.20;41.20
1455;DHT22;721;48.168;12.818;2023-03-20T11:30:21;11.10;39.20
1455;DHT22;721;48.168;12.818;2023-03-20T11:32:49;11.10;39.30
1455;DHT22;721;48.168;12.818;2023-03-20T11:35:25;11.10;39.00
1455;DHT22;721;48.168;12.818;2023-03-20T11:38:11;11.00;42.00
1455;DHT22;721;48.168;12.818;2023-03-20T11:40:38;11.10;40.60
1455;DHT22;721;48.168;12.818;2023-03-20T11:43:10;11.20;39.20
1455;DHT22;721;48.168;12.818;2023-03-20T11:45:39;11.20;38.00
1455;DHT22;721;48.168;12.818;2023-03-20T11:48:15;11.30;39.30
1455;DHT22;721;48.168;12.818;2023-03-20T11:50:45;11.40;38.70
1455;DHT22;721;48.168;12.818;2023-03-20T11:53:24;11.50;37.70
1455;DHT22;721;48.168;12.818;2023-03-20T11:56:02;11.60;36.60
1455;DHT22;721;48.168;12.818;2023-03-20T11:58:29;11.60;38.40
1455;DHT22;721;48.168;12.818;2023-03-20T12:00:57;11.70;34.40
1455;DHT22;721;48.168;12.818;2023-03-20T12:03:41;11.80;34.10
1455;DHT22;721;48.168;12.818;2023-03-20T12:06:13;11.90;34.60
1455;DHT22;721;48.168;12.818;2023-03-20T12:08:45;11.90;32.30
1455;DHT22;721;48.168;12.818;2023-03-20T12:11:38;12.10;32.50
1455;DHT22;721;48.168;12.818;2023-03-20T12:14:12;12.20;32.40
1455;DHT22;721;48.168;12.818;2023-03-20T12:16:41;12.20;29.60
1455;DHT22;721;48.168;12.818;2023-03-20T12:19:11;12.30;28.50
1455;DHT22;721;48.168;12.818;2023-03-20T12:21:47;12.30;28.30
1455;DHT22;721;48.168;12.818;2023-03-20T12:24:26;12.40;28.40
1455;DHT22;721;48.168;12.818;2023-03-20T12:26:59;12.40;28.40
1455;DHT22;721;48.168;12.818;2023-03-20T12:29:33;12.50;27.90
1455;DHT22;721;48.168;12.818;2023-03-20T12:32:05;12.50;26.80
1455;DHT22;721;48.168;12.818;2023-03-20T12:34:38;12.50;26.50
1455;DHT22;721;48.168;12.818;2023-03-20T12:37:08;12.70;26.80
1455;DHT22;721;48.168;12.818;2023-03-20T12:39:41;12.70;26.70
1455;DHT22;721;48.168;12.818;2023-03-20T12:42:21;12.80;25.40
1455;DHT22;721;48.168;12.818;2023-03-20T12:44:55;12.90;27.20
1455;DHT22;721;48.168;12.818;2023-03-20T12:47:46;12.90;25.00
1455;DHT22;721;48.168;12.818;2023-03-20T12:50:25;12.90;25.50
1455;DHT22;721;48.168;12.818;2023-03-20T12:53:10;13.00;24.20
1455;DHT22;721;48.168;12.818;2023-03-20T12:55:50;12.90;24.20
1455;DHT22;721;48.168;12.818;2023-03-20T12:58:26;12.90;25.30
1455;DHT22;721;48.168;12.818;2023-03-20T13:01:01;13.10;24.20
1455;DHT22;721;48.168;12.818;2023-03-20T13:03:50;13.10;24.80
1455;DHT22;721;48.168;12.818;2023-03-20T13:06:29;13.10;23.10
1455;DHT22;721;48.168;12.818;2023-03-20T13:09:19;13.10;25.20
1455;DHT22;721;48.168;12.818;2023-03-20T13:12:00;13.20;24.60
1455;DHT22;721;48.168;12.818;2023-03-20T13:14:34;13.30;23.80
1455;DHT22;721;48.168;12.818;2023-03-20T13:17:12;13.30;25.90
1455;DHT22;721;48.168;12.818;2023-03-20T13:19:46;13.30;23.50
1455;DHT22;721;48.168;12.818;2023-03-20T13:22:21;13.30;19.80
1455;DHT22;721;48.168;12.818;2023-03-20T13:24:54;13.20;21.00
1455;DHT22;721;48.168;12.818;2023-03-20T13:27:30;13.30;21.10
1455;DHT22;721;48.168;12.818;2023-03-20T13:30:02;13.50;21.30
1455;DHT22;721;48.168;12.818;2023-03-20T13:32:44;13.50;18.10
1455;DHT22;721;48.168;12.818;2023-03-20T13:35:37;13.50;17.70
1455;DHT22;721;48.168;12.818;2023-03-20T13:38:11;13.60;17.10
1455;DHT22;721;48.168;12.818;2023-03-20T13:40:42;13.60;17.60
1455;DHT22;721;48.168;12.818;2023-03-20T13:43:21;13.50;17.90
1455;DHT22;721;48.168;12.818;2023-03-20T13:45:52;13.40;17.70
1455;DHT22;721;48.168;12.818;2023-03-20T13:48:26;13.30;18.00
1455;DHT22;721;48.168;12.818;2023-03-20T13:50:58;13.20;19.60
1455;DHT22;721;48.168;12.818;2023-03-20T13:53:35;13.20;23.50
1455;DHT22;721;48.168;12.818;2023-03-20T13:56:09;13.20;25.40
1455;DHT22;721;48.168;12.818;2023-03-20T13:59:02;13.10;25.60
1455;DHT22;721;48.168;12.818;2023-03-20T14:01:42;13.10;24.80
1455;DHT22;721;48.168;12.818;2023-03-20T14:04:14;12.90;26.10
1455;DHT22;721;48.168;12.818;2023-03-20T14:06:48;12.90;29.50
1455;DHT22;721;48.168;12.818;2023-03-20T14:09:32;12.90;28.00
1455;DHT22;721;48.168;12.818;2023-03-20T14:12:02;12.90;28.70
1455;DHT22;721;48.168;12.818;2023-03-20T14:14:31;13.00;29.90
1455;DHT22;721;48.168;12.818;2023-03-20T14:17:08;13.00;28.80
1455;DHT22;721;48.168;12.818;2023-03-20T14:19:38;13.10;29.50
1455;DHT22;721;48.168;12.818;2023-03-20T14:22:05;13.10;26.80
1455;DHT22;721;48.168;12.818;2023-03-20T14:24:35;13.10;24.90
1455;DHT22;721;48.168;12.818;2023-03-20T14:27:02;13.20;25.80
1455;DHT22;721;48.168;12.818;2023-03-20T14:29:34;13.20;25.90
1455;DHT22;721;48.168;12.818;2023-03-20T14:34:46;13.30;24.20
1455;DHT22;721;48.168;12.818;2023-03-20T14:37:27;13.40;23.40
1455;DHT22;721;48.168;12.818;2023-03-20T14:40:00;13.40;27.60
1455;DHT22;721;48.168;12.818;2023-03-20T14:42:38;13.20;25.50
1455;DHT22;721;48.168;12.818;2023-03-20T14:45:26;13.30;25.70
1455;DHT22;721;48.168;12.818;2023-03-20T14:47:59;13.40;24.70
1455;DHT22;721;48.168;12.818;2023-03-20T14:50:29;13.40;26.30
1455;DHT22;721;48.168;12.818;2023-03-20T14:53:10;13.50;27.30
1455;DHT22;721;48.168;12.818;2023-03-20T14:56:00;13.60;26.80
1455;DHT22;721;48.168;12.818;2023-03-20T14:58:46;13.60;27.60
1455;DHT22;721;48.168;12.818;2023-03-20T15:01:17;13.60;27.60
1455;DHT22;721;48.168;12.818;2023-03-20T15:03:53;13.70;25.40
1455;DHT22;721;48.168;12.818;2023-03-20T15:06:24;13.70;25.80
1455;DHT22;721;48.168;12.818;2023-03-20T15:08:53;13.70;26.60
1455;DHT22;721;48.168;12.818;2023-03-20T15:11:22;13.70;22.60
1455;DHT22;721;48.168;12.818;2023-03-20T15:13:50;13.70;21.90
1455;DHT22;721;48.168;12.818;2023-03-20T15:16:26;13.70;23.10
1455;DHT22;721;48.168;12.818;2023-03-20T15:18:53;13.70;20.10
1455;DHT22;721;48.168;12.818;2023-03-20T15:21:26;13.70;20.20
1455;DHT22;721;48.168;12.818;2023-03-20T15:23:56;13.80;21.40
1455;DHT22;721;48.168;12.818;2023-03-20T15:26:24;13.90;21.60
1455;DHT22;721;48.168;12.818;2023-03-20T15:28:58;13.80;18.50
1455;DHT22;721;48.168;12.818;2023-03-20T15:31:29;13.90;18.90
1455;DHT22;721;48.168;12.818;2023-03-20T15:33:58;13.90;18.70
1455;DHT22;721;48.168;12.818;2023-03-20T15:36:27;13.90;18.60
1455;DHT22;721;48.168;12.818;2023-03-20T15:39:04;14.00;17.60
1455;DHT22;721;48.168;12.818;2023-03-20T15:41:33;13.90;15.00
1455;DHT22;721;48.168;12.818;2023-03-20T15:44:16;13.90;16.20
1455;DHT22;721;48.168;12.818;2023-03-20T15:46:54;13.90;17.20
1455;DHT22;721;48.168;12.818;2023-03-20T15:49:22;14.00;16.40
1455;DHT22;721;48.168;12.818;2023-03-20T15:51:50;14.00;14.60
1455;DHT22;721;48.168;12.818;2023-03-20T15:54:17;14.00;11.60
1455;DHT22;721;48.168;12.818;2023-03-20T15:56:46;14.10;13.50
1455;DHT22;721;48.168;12.818;2023-03-20T15:59:16;14.10;11.60
1455;DHT22;721;48.168;12.818;2023-03-20T16:01:44;14.10;9.80
1455;DHT22;721;48.168;12.818;2023-03-20T16:04:14;14.00;10.90
1455;DHT22;721;48.168;12.818;2023-03-20T16:06:47;14.00;12.20
1455;DHT22;721;48.168;12.818;2023-03-20T16:09:15;14.00;13.50
1455;DHT22;721;48.168;12.818;2023-03-20T16:11:43;14.00;14.60
1455;DHT22;721;48.168;12.818;2023-03-20T16:14:14;14.10;13.80
1455;DHT22;721;48.168;12.818;2023-03-20T16:16:43;14.10;16.40
1455;DHT22;721;48.168;12.818;2023-03-20T16:19:14;14.20;15.20
1455;DHT22;721;48.168;12.818;2023-03-20T16:21:45;14.10;13.80
1455;DHT22;721;48.168;12.818;2023-03-20T16:24:19;14.10;13.60
1455;DHT22;721;48.168;12.818;2023-03-20T16:26:50;14.10;13.60
1455;DHT22;721;48.168;12.818;2023-03-20T16:29:18;14.20;12.80
1455;DHT22;721;48.168;12.818;2023-03-20T16:31:53;14.30;12.90
1455;DHT22;721;48.168;12.818;2023-03-20T16:34:24;14.30;12.20
1455;DHT22;721;48.168;12.818;2023-03-20T16:36:54;14.20;11.90
1455;DHT22;721;48.168;12.818;2023-03-20T16:39:24;14.10;11.90
1455;DHT22;721;48.168;12.818;2023-03-20T16:41:56;14.10;11.80